RIPO2: Cimarron River Near Ripley, OK

                                SHEF ID:       RIPO2     Cimarron River near Ripley, OK
STATION TYPE:
Regulating: Stage = 20.00, Flow = 33370

PRECIP ELEVATION STAGE RIV-FLOW AIR-TEMP WIND-DIRWIND-SPEED REL-HUMID VOLTAGE BAT-LOAD
in ft ft cfs F deg mph % volt volt
Ccp-Rev Ccp-Rev Ccp-Rev Ccp-Rev Ccp-Rev Ccp-Rev Ccp-Rev Ccp-Rev Ccp-Rev Ccp-Rev
(America/Chicago)
03/26 00:00 0.00 ---- 7.29 357 168.44 ---- ---- ---- ---- 12.63
03/26 01:00 0.00 ---- 7.28 353 166.10 ---- ---- ---- ---- 12.60
03/26 02:00 0.00 ---- 7.27 349 164.30 ---- ---- ---- ---- 12.57
03/26 03:00 0.00 ---- 7.31 365 161.96 ---- ---- ---- ---- 12.57
03/26 04:00 0.00 ---- 7.30 361 159.26 ---- ---- ---- ---- 12.56
03/26 05:00 0.00 ---- 7.30 361 157.28 ---- ---- ---- ---- 12.54
03/26 06:00 0.00 ---- 7.29 357 155.66 ---- ---- ---- ---- 12.53
03/26 07:00 0.00 ---- 7.26 345 154.04 ---- ---- ---- ---- 12.50
03/26 08:00 0.00 ---- 7.26 345 155.84 ---- ---- ---- ---- 12.50
03/26 09:00 0.00 ---- 7.22 332 160.16 ---- ---- ---- ---- 12.54
03/26 10:00 0.00 ---- 7.25 342 167.54 ---- ---- ---- ---- 13.19
03/26 11:00 0.00 ---- 7.22 332 174.56 ---- ---- ---- ---- 13.44
03/26 12:00 0.00 ---- 7.24 338 180.32 ---- ---- ---- ---- 13.36
03/26 13:00 0.00 ---- 7.21 328 186.26 ---- ---- ---- ---- 13.29
03/26 14:00 0.00 ---- 7.19 321 190.94 ---- ---- ---- ---- 13.24
03/26 15:00 0.00 ---- 7.17 315 194.18 ---- ---- ---- ---- 13.23
03/26 16:00 0.00 ---- 7.18 318 195.26 ---- ---- ---- ---- 13.23
03/26 17:00 0.00 ---- 7.23 335 195.62 ---- ---- ---- ---- 13.16
03/26 18:00 0.00 ---- 7.22 332 194.54 ---- ---- ---- ---- 13.14
03/26 19:00 0.00 ---- 7.20 325 194.00 ---- ---- ---- ---- 13.14
03/26 20:00 0.00 ---- 7.24 338 185.90 ---- ---- ---- ---- 13.16
03/26 21:00 0.00 ---- 7.27 349 180.32 ---- ---- ---- ---- 12.94
03/26 22:00 0.00 ---- 7.27 349 175.82 ---- ---- ---- ---- 12.78
03/26 23:00 0.00 ---- 7.27 349 173.30 ---- ---- ---- ---- 12.68
Data processed at Fri 27Mar2026 04:02 GMT

NOTICE: If you are parsing this page

Please convert to using our Data API. Starting early 2026 we will be migrating to: https://water.usace.army.mil with modern pages rendered in JavaScript. When this migration completes you will no longer be able to scrape this page! CWMSDataAPI (CDA)

Timeseries IDs (TSIDs)

TSIDs used from left to right in the data table
RIPL.Precip-Inc.Total.1Hour.1Hour.Ccp-Rev
RIPL.Stage.Inst.1Hour.0.Ccp-Rev
RIPL.Flow.Inst.1Hour.0.Ccp-Rev
RIPL.Temp-Air.Inst.1Hour.0.Ccp-Rev
RIPL.Dir-Wind.Inst.1Hour.0.Ccp-Rev
RIPL.Speed-Wind.Inst.1Hour.0.Ccp-Rev
RIPL.%-Humidity.Inst.1Hour.0.Ccp-Rev
RIPL.Volt-Battery.Inst.1Hour.0.Ccp-Rev
RIPL.Volt-Battery Load.Inst.1Hour.0.Ccp-Rev

                            

All information presented herein is the property of the government of the United States of America and may be revised or deleted at any time without prior notice. Dissemination of this information without the expressed written consent of the Public Affairs Office, Tulsa District U.S. Army Corps of Engineers is strictly prohibited. These data are gathered electronically and, as presented, have NOT undergone any form of quality control. These data are NOT guaranteed to be valid or correct.